sensor_id;sensor_type;location;lat;lon;timestamp;P1;durP1;ratioP1;P2;durP2;ratioP2
55776;SDS011;54079;44.540;18.784;2022-08-21T00:02:21;6.78;;;4.53;;
55776;SDS011;54079;44.540;18.784;2022-08-21T00:04:50;6.75;;;4.65;;
55776;SDS011;54079;44.540;18.784;2022-08-21T00:07:17;6.47;;;4.60;;
55776;SDS011;54079;44.540;18.784;2022-08-21T00:09:45;9.88;;;4.93;;
55776;SDS011;54079;44.540;18.784;2022-08-21T00:12:12;10.82;;;5.22;;
55776;SDS011;54079;44.540;18.784;2022-08-21T00:14:38;6.53;;;5.15;;
55776;SDS011;54079;44.540;18.784;2022-08-21T00:17:05;5.07;;;4.53;;
55776;SDS011;54079;44.540;18.784;2022-08-21T00:19:31;6.85;;;4.97;;
55776;SDS011;54079;44.540;18.784;2022-08-21T00:21:57;7.85;;;5.72;;
55776;SDS011;54079;44.540;18.784;2022-08-21T00:24:24;8.80;;;6.60;;
55776;SDS011;54079;44.540;18.784;2022-08-21T00:26:50;6.45;;;5.82;;
55776;SDS011;54079;44.540;18.784;2022-08-21T00:29:17;8.65;;;7.35;;
55776;SDS011;54079;44.540;18.784;2022-08-21T00:31:43;7.65;;;6.95;;
55776;SDS011;54079;44.540;18.784;2022-08-21T00:34:10;8.05;;;6.78;;
55776;SDS011;54079;44.540;18.784;2022-08-21T00:36:37;10.70;;;7.50;;
55776;SDS011;54079;44.540;18.784;2022-08-21T00:39:04;8.02;;;6.55;;
55776;SDS011;54079;44.540;18.784;2022-08-21T00:41:32;8.63;;;6.93;;
55776;SDS011;54079;44.540;18.784;2022-08-21T00:43:59;8.15;;;7.10;;
55776;SDS011;54079;44.540;18.784;2022-08-21T00:46:25;9.57;;;7.35;;
55776;SDS011;54079;44.540;18.784;2022-08-21T00:48:51;8.10;;;7.18;;
55776;SDS011;54079;44.540;18.784;2022-08-21T00:51:17;8.23;;;7.07;;
55776;SDS011;54079;44.540;18.784;2022-08-21T00:53:51;5.95;;;5.32;;
55776;SDS011;54079;44.540;18.784;2022-08-21T00:56:21;5.63;;;4.03;;
55776;SDS011;54079;44.540;18.784;2022-08-21T00:58:49;4.55;;;3.63;;
55776;SDS011;54079;44.540;18.784;2022-08-21T01:01:16;4.68;;;3.65;;
55776;SDS011;54079;44.540;18.784;2022-08-21T01:03:43;4.32;;;3.40;;
55776;SDS011;54079;44.540;18.784;2022-08-21T01:06:10;3.65;;;2.90;;
55776;SDS011;54079;44.540;18.784;2022-08-21T01:08:36;6.55;;;2.55;;
55776;SDS011;54079;44.540;18.784;2022-08-21T01:11:02;3.78;;;2.33;;
55776;SDS011;54079;44.540;18.784;2022-08-21T01:13:29;4.82;;;2.28;;
55776;SDS011;54079;44.540;18.784;2022-08-21T01:15:59;1.95;;;1.75;;
55776;SDS011;54079;44.540;18.784;2022-08-21T01:18:28;3.15;;;1.30;;
55776;SDS011;54079;44.540;18.784;2022-08-21T01:21:08;1.60;;;1.38;;
55776;SDS011;54079;44.540;18.784;2022-08-21T01:23:36;2.20;;;1.45;;
55776;SDS011;54079;44.540;18.784;2022-08-21T01:26:05;1.13;;;0.90;;
55776;SDS011;54079;44.540;18.784;2022-08-21T01:28:34;2.65;;;1.35;;
55776;SDS011;54079;44.540;18.784;2022-08-21T01:31:05;2.20;;;0.82;;
55776;SDS011;54079;44.540;18.784;2022-08-21T01:33:33;1.30;;;0.68;;
55776;SDS011;54079;44.540;18.784;2022-08-21T01:35:59;1.83;;;0.75;;
55776;SDS011;54079;44.540;18.784;2022-08-21T01:38:25;2.42;;;0.90;;
55776;SDS011;54079;44.540;18.784;2022-08-21T01:40:51;2.55;;;0.52;;
55776;SDS011;54079;44.540;18.784;2022-08-21T01:43:17;1.67;;;0.60;;
55776;SDS011;54079;44.540;18.784;2022-08-21T01:45:43;1.13;;;0.57;;
55776;SDS011;54079;44.540;18.784;2022-08-21T01:48:09;0.77;;;0.70;;
55776;SDS011;54079;44.540;18.784;2022-08-21T01:50:35;0.88;;;0.73;;
55776;SDS011;54079;44.540;18.784;2022-08-21T01:53:02;0.60;;;0.50;;
55776;SDS011;54079;44.540;18.784;2022-08-21T01:55:29;1.25;;;0.82;;
55776;SDS011;54079;44.540;18.784;2022-08-21T01:57:55;1.27;;;0.88;;
55776;SDS011;54079;44.540;18.784;2022-08-21T02:00:23;1.33;;;0.70;;
55776;SDS011;54079;44.540;18.784;2022-08-21T02:02:49;1.00;;;0.68;;
55776;SDS011;54079;44.540;18.784;2022-08-21T02:05:15;2.33;;;0.68;;
55776;SDS011;54079;44.540;18.784;2022-08-21T02:07:45;1.42;;;0.50;;
55776;SDS011;54079;44.540;18.784;2022-08-21T02:10:16;0.73;;;0.68;;
55776;SDS011;54079;44.540;18.784;2022-08-21T02:12:48;2.85;;;1.10;;
55776;SDS011;54079;44.540;18.784;2022-08-21T02:15:15;0.70;;;0.40;;
55776;SDS011;54079;44.540;18.784;2022-08-21T02:17:42;0.38;;;0.35;;
55776;SDS011;54079;44.540;18.784;2022-08-21T02:20:15;1.50;;;0.60;;
55776;SDS011;54079;44.540;18.784;2022-08-21T02:22:49;0.95;;;0.20;;
55776;SDS011;54079;44.540;18.784;2022-08-21T02:25:15;1.63;;;0.30;;
55776;SDS011;54079;44.540;18.784;2022-08-21T02:27:43;0.47;;;0.30;;
55776;SDS011;54079;44.540;18.784;2022-08-21T02:30:17;0.63;;;0.45;;
55776;SDS011;54079;44.540;18.784;2022-08-21T02:32:45;3.58;;;0.63;;
55776;SDS011;54079;44.540;18.784;2022-08-21T02:35:11;1.90;;;1.05;;
55776;SDS011;54079;44.540;18.784;2022-08-21T02:37:44;2.90;;;0.82;;
55776;SDS011;54079;44.540;18.784;2022-08-21T02:40:18;1.10;;;0.43;;
55776;SDS011;54079;44.540;18.784;2022-08-21T02:42:45;1.58;;;0.80;;
55776;SDS011;54079;44.540;18.784;2022-08-21T02:45:11;1.35;;;0.60;;
55776;SDS011;54079;44.540;18.784;2022-08-21T02:47:39;0.93;;;0.50;;
55776;SDS011;54079;44.540;18.784;2022-08-21T02:50:06;0.63;;;0.50;;
55776;SDS011;54079;44.540;18.784;2022-08-21T02:52:32;0.45;;;0.45;;
55776;SDS011;54079;44.540;18.784;2022-08-21T02:54:59;0.15;;;0.13;;
55776;SDS011;54079;44.540;18.784;2022-08-21T02:57:25;2.75;;;0.32;;
55776;SDS011;54079;44.540;18.784;2022-08-21T02:59:51;1.55;;;0.10;;
55776;SDS011;54079;44.540;18.784;2022-08-21T03:02:17;0.10;;;0.05;;
55776;SDS011;54079;44.540;18.784;2022-08-21T03:04:43;1.13;;;0.20;;
55776;SDS011;54079;44.540;18.784;2022-08-21T03:07:09;0.40;;;0.10;;
55776;SDS011;54079;44.540;18.784;2022-08-21T03:09:34;0.82;;;0.10;;
55776;SDS011;54079;44.540;18.784;2022-08-21T03:12:00;0.00;;;0.00;;
55776;SDS011;54079;44.540;18.784;2022-08-21T03:14:26;0.55;;;0.00;;
55776;SDS011;54079;44.540;18.784;2022-08-21T03:16:52;1.38;;;0.00;;
55776;SDS011;54079;44.540;18.784;2022-08-21T03:19:18;1.15;;;0.00;;
55776;SDS011;54079;44.540;18.784;2022-08-21T03:21:45;2.92;;;0.50;;
55776;SDS011;54079;44.540;18.784;2022-08-21T03:24:11;0.20;;;0.20;;
55776;SDS011;54079;44.540;18.784;2022-08-21T03:26:37;0.50;;;0.28;;
55776;SDS011;54079;44.540;18.784;2022-08-21T03:29:03;0.93;;;0.30;;
55776;SDS011;54079;44.540;18.784;2022-08-21T03:31:30;0.47;;;0.38;;
55776;SDS011;54079;44.540;18.784;2022-08-21T03:33:57;0.35;;;0.25;;
55776;SDS011;54079;44.540;18.784;2022-08-21T03:36:23;0.17;;;0.10;;
55776;SDS011;54079;44.540;18.784;2022-08-21T03:38:49;0.65;;;0.28;;
55776;SDS011;54079;44.540;18.784;2022-08-21T03:41:15;0.70;;;0.60;;
55776;SDS011;54079;44.540;18.784;2022-08-21T03:43:41;0.40;;;0.38;;
55776;SDS011;54079;44.540;18.784;2022-08-21T03:46:07;0.65;;;0.20;;
55776;SDS011;54079;44.540;18.784;2022-08-21T03:48:33;0.65;;;0.50;;
55776;SDS011;54079;44.540;18.784;2022-08-21T03:51:01;0.95;;;0.80;;
55776;SDS011;54079;44.540;18.784;2022-08-21T03:53:27;1.40;;;0.93;;
55776;SDS011;54079;44.540;18.784;2022-08-21T03:55:53;0.65;;;0.55;;
55776;SDS011;54079;44.540;18.784;2022-08-21T03:58:20;2.45;;;0.80;;
55776;SDS011;54079;44.540;18.784;2022-08-21T04:00:49;1.15;;;0.85;;
55776;SDS011;54079;44.540;18.784;2022-08-21T04:03:17;2.05;;;1.08;;
55776;SDS011;54079;44.540;18.784;2022-08-21T04:05:43;2.13;;;0.88;;
55776;SDS011;54079;44.540;18.784;2022-08-21T04:08:10;1.02;;;0.70;;
55776;SDS011;54079;44.540;18.784;2022-08-21T04:10:38;1.58;;;0.80;;
55776;SDS011;54079;44.540;18.784;2022-08-21T04:13:05;2.50;;;1.20;;
55776;SDS011;54079;44.540;18.784;2022-08-21T04:15:33;1.10;;;1.00;;
55776;SDS011;54079;44.540;18.784;2022-08-21T04:17:59;1.58;;;0.90;;
55776;SDS011;54079;44.540;18.784;2022-08-21T04:20:25;1.98;;;1.27;;
55776;SDS011;54079;44.540;18.784;2022-08-21T04:22:51;1.83;;;1.50;;
55776;SDS011;54079;44.540;18.784;2022-08-21T04:25:18;2.42;;;1.17;;
55776;SDS011;54079;44.540;18.784;2022-08-21T04:27:46;1.90;;;1.30;;
55776;SDS011;54079;44.540;18.784;2022-08-21T04:30:13;1.92;;;1.70;;
55776;SDS011;54079;44.540;18.784;2022-08-21T04:32:44;1.25;;;1.15;;
55776;SDS011;54079;44.540;18.784;2022-08-21T04:35:12;1.10;;;1.00;;
55776;SDS011;54079;44.540;18.784;2022-08-21T04:37:39;5.15;;;0.90;;
55776;SDS011;54079;44.540;18.784;2022-08-21T04:40:05;1.45;;;1.25;;
55776;SDS011;54079;44.540;18.784;2022-08-21T04:42:32;3.13;;;1.00;;
55776;SDS011;54079;44.540;18.784;2022-08-21T04:45:05;1.13;;;0.88;;
55776;SDS011;54079;44.540;18.784;2022-08-21T04:47:31;1.23;;;1.13;;
55776;SDS011;54079;44.540;18.784;2022-08-21T04:49:57;1.77;;;1.65;;
55776;SDS011;54079;44.540;18.784;2022-08-21T04:52:23;1.70;;;1.60;;
55776;SDS011;54079;44.540;18.784;2022-08-21T04:54:50;2.42;;;1.30;;
55776;SDS011;54079;44.540;18.784;2022-08-21T04:57:17;1.08;;;0.98;;
55776;SDS011;54079;44.540;18.784;2022-08-21T04:59:47;1.88;;;1.10;;
55776;SDS011;54079;44.540;18.784;2022-08-21T05:02:15;2.90;;;1.25;;
55776;SDS011;54079;44.540;18.784;2022-08-21T05:04:46;1.23;;;1.13;;
55776;SDS011;54079;44.540;18.784;2022-08-21T05:07:20;2.45;;;2.10;;
55776;SDS011;54079;44.540;18.784;2022-08-21T05:09:51;1.40;;;1.00;;
55776;SDS011;54079;44.540;18.784;2022-08-21T05:12:18;0.82;;;0.55;;
55776;SDS011;54079;44.540;18.784;2022-08-21T05:14:44;1.13;;;1.00;;
55776;SDS011;54079;44.540;18.784;2022-08-21T05:17:10;1.40;;;0.73;;
55776;SDS011;54079;44.540;18.784;2022-08-21T05:19:36;2.05;;;0.50;;
55776;SDS011;54079;44.540;18.784;2022-08-21T05:22:02;2.35;;;0.68;;
55776;SDS011;54079;44.540;18.784;2022-08-21T05:24:28;1.25;;;0.75;;
55776;SDS011;54079;44.540;18.784;2022-08-21T05:26:54;1.02;;;0.75;;
55776;SDS011;54079;44.540;18.784;2022-08-21T05:29:21;2.28;;;0.47;;
55776;SDS011;54079;44.540;18.784;2022-08-21T05:31:47;34.22;;;2.97;;
55776;SDS011;54079;44.540;18.784;2022-08-21T05:34:14;3.08;;;0.60;;
55776;SDS011;54079;44.540;18.784;2022-08-21T05:36:43;8.18;;;1.13;;
55776;SDS011;54079;44.540;18.784;2022-08-21T05:39:09;15.52;;;6.55;;
55776;SDS011;54079;44.540;18.784;2022-08-21T05:41:35;6.47;;;5.78;;
55776;SDS011;54079;44.540;18.784;2022-08-21T05:44:01;5.65;;;3.22;;
55776;SDS011;54079;44.540;18.784;2022-08-21T05:46:28;1.48;;;0.80;;
55776;SDS011;54079;44.540;18.784;2022-08-21T05:48:54;1.05;;;0.95;;
55776;SDS011;54079;44.540;18.784;2022-08-21T05:51:20;3.63;;;2.30;;
55776;SDS011;54079;44.540;18.784;2022-08-21T05:53:46;1.00;;;0.80;;
55776;SDS011;54079;44.540;18.784;2022-08-21T05:56:12;0.82;;;0.82;;
55776;SDS011;54079;44.540;18.784;2022-08-21T05:58:39;1.35;;;0.88;;
55776;SDS011;54079;44.540;18.784;2022-08-21T06:01:05;1.20;;;0.60;;
55776;SDS011;54079;44.540;18.784;2022-08-21T06:03:33;0.40;;;0.25;;
55776;SDS011;54079;44.540;18.784;2022-08-21T06:06:00;0.88;;;0.82;;
55776;SDS011;54079;44.540;18.784;2022-08-21T06:08:27;3.70;;;3.22;;
55776;SDS011;54079;44.540;18.784;2022-08-21T06:10:54;1.13;;;1.02;;
55776;SDS011;54079;44.540;18.784;2022-08-21T06:13:22;2.58;;;1.95;;
55776;SDS011;54079;44.540;18.784;2022-08-21T06:15:49;5.72;;;3.20;;
55776;SDS011;54079;44.540;18.784;2022-08-21T06:18:25;3.50;;;0.93;;
55776;SDS011;54079;44.540;18.784;2022-08-21T06:20:51;0.50;;;0.30;;
55776;SDS011;54079;44.540;18.784;2022-08-21T06:23:17;0.38;;;0.38;;
55776;SDS011;54079;44.540;18.784;2022-08-21T06:25:43;4.28;;;0.43;;
55776;SDS011;54079;44.540;18.784;2022-08-21T06:28:09;1.92;;;0.40;;
55776;SDS011;54079;44.540;18.784;2022-08-21T06:30:36;2.45;;;0.60;;
55776;SDS011;54079;44.540;18.784;2022-08-21T06:33:04;0.85;;;0.38;;
55776;SDS011;54079;44.540;18.784;2022-08-21T06:35:32;6.18;;;2.03;;
55776;SDS011;54079;44.540;18.784;2022-08-21T06:37:58;1.95;;;0.95;;
55776;SDS011;54079;44.540;18.784;2022-08-21T06:40:25;1.63;;;1.52;;
55776;SDS011;54079;44.540;18.784;2022-08-21T06:42:52;3.17;;;1.27;;
55776;SDS011;54079;44.540;18.784;2022-08-21T06:45:18;2.67;;;1.10;;
55776;SDS011;54079;44.540;18.784;2022-08-21T06:47:45;2.17;;;1.33;;
55776;SDS011;54079;44.540;18.784;2022-08-21T06:50:10;5.90;;;2.20;;
55776;SDS011;54079;44.540;18.784;2022-08-21T06:52:37;5.97;;;5.43;;
55776;SDS011;54079;44.540;18.784;2022-08-21T06:55:05;6.35;;;4.82;;
55776;SDS011;54079;44.540;18.784;2022-08-21T06:57:32;4.22;;;3.83;;
55776;SDS011;54079;44.540;18.784;2022-08-21T06:59:58;3.35;;;3.05;;
55776;SDS011;54079;44.540;18.784;2022-08-21T07:02:24;4.63;;;2.40;;
55776;SDS011;54079;44.540;18.784;2022-08-21T07:04:50;25.80;;;10.75;;
55776;SDS011;54079;44.540;18.784;2022-08-21T07:07:16;5.32;;;4.65;;
55776;SDS011;54079;44.540;18.784;2022-08-21T07:09:43;2.58;;;0.93;;
55776;SDS011;54079;44.540;18.784;2022-08-21T07:12:09;1.20;;;0.95;;
55776;SDS011;54079;44.540;18.784;2022-08-21T07:14:35;1.75;;;1.50;;
55776;SDS011;54079;44.540;18.784;2022-08-21T07:17:02;5.25;;;2.17;;
55776;SDS011;54079;44.540;18.784;2022-08-21T07:19:28;7.80;;;5.88;;
55776;SDS011;54079;44.540;18.784;2022-08-21T07:21:58;1.50;;;1.10;;
55776;SDS011;54079;44.540;18.784;2022-08-21T07:24:26;1.95;;;0.68;;
55776;SDS011;54079;44.540;18.784;2022-08-21T07:26:53;0.95;;;0.30;;
55776;SDS011;54079;44.540;18.784;2022-08-21T07:29:18;0.60;;;0.30;;
55776;SDS011;54079;44.540;18.784;2022-08-21T07:31:45;1.85;;;0.30;;
55776;SDS011;54079;44.540;18.784;2022-08-21T07:34:11;0.35;;;0.30;;
55776;SDS011;54079;44.540;18.784;2022-08-21T07:36:38;2.38;;;0.80;;
55776;SDS011;54079;44.540;18.784;2022-08-21T07:39:04;1.15;;;0.63;;
55776;SDS011;54079;44.540;18.784;2022-08-21T07:41:29;1.45;;;0.95;;
55776;SDS011;54079;44.540;18.784;2022-08-21T07:43:57;1.38;;;1.08;;
55776;SDS011;54079;44.540;18.784;2022-08-21T07:46:24;0.63;;;0.52;;
55776;SDS011;54079;44.540;18.784;2022-08-21T07:48:51;3.83;;;1.67;;
55776;SDS011;54079;44.540;18.784;2022-08-21T07:51:18;1.85;;;0.60;;
55776;SDS011;54079;44.540;18.784;2022-08-21T07:53:49;2.08;;;1.90;;
55776;SDS011;54079;44.540;18.784;2022-08-21T07:56:16;0.47;;;0.38;;
55776;SDS011;54079;44.540;18.784;2022-08-21T07:58:43;3.58;;;1.25;;
55776;SDS011;54079;44.540;18.784;2022-08-21T08:01:09;2.25;;;1.85;;
55776;SDS011;54079;44.540;18.784;2022-08-21T08:03:35;1.77;;;0.90;;
55776;SDS011;54079;44.540;18.784;2022-08-21T08:06:01;0.88;;;0.80;;
55776;SDS011;54079;44.540;18.784;2022-08-21T08:08:29;2.00;;;1.42;;
55776;SDS011;54079;44.540;18.784;2022-08-21T08:10:56;2.33;;;1.63;;
55776;SDS011;54079;44.540;18.784;2022-08-21T08:13:23;0.50;;;0.50;;
55776;SDS011;54079;44.540;18.784;2022-08-21T08:15:49;7.18;;;2.58;;
55776;SDS011;54079;44.540;18.784;2022-08-21T08:18:15;3.60;;;1.00;;
55776;SDS011;54079;44.540;18.784;2022-08-21T08:20:41;11.25;;;4.03;;
55776;SDS011;54079;44.540;18.784;2022-08-21T08:23:11;3.85;;;1.70;;
55776;SDS011;54079;44.540;18.784;2022-08-21T08:25:38;2.90;;;1.10;;
55776;SDS011;54079;44.540;18.784;2022-08-21T08:28:04;0.80;;;0.70;;
55776;SDS011;54079;44.540;18.784;2022-08-21T08:30:31;1.50;;;0.95;;
55776;SDS011;54079;44.540;18.784;2022-08-21T08:32:58;0.63;;;0.60;;
55776;SDS011;54079;44.540;18.784;2022-08-21T08:35:25;1.02;;;0.63;;
55776;SDS011;54079;44.540;18.784;2022-08-21T08:37:51;0.98;;;0.90;;
55776;SDS011;54079;44.540;18.784;2022-08-21T08:40:28;1.33;;;1.15;;
55776;SDS011;54079;44.540;18.784;2022-08-21T08:43:11;14.15;;;10.98;;
55776;SDS011;54079;44.540;18.784;2022-08-21T08:45:39;7.90;;;6.50;;
55776;SDS011;54079;44.540;18.784;2022-08-21T08:48:08;7.13;;;4.35;;
55776;SDS011;54079;44.540;18.784;2022-08-21T08:50:45;3.17;;;2.35;;
55776;SDS011;54079;44.540;18.784;2022-08-21T08:53:15;1.48;;;0.95;;
55776;SDS011;54079;44.540;18.784;2022-08-21T08:55:47;7.35;;;4.18;;
55776;SDS011;54079;44.540;18.784;2022-08-21T08:58:23;3.42;;;2.55;;
55776;SDS011;54079;44.540;18.784;2022-08-21T09:00:52;1.77;;;1.67;;
55776;SDS011;54079;44.540;18.784;2022-08-21T09:03:20;1.40;;;1.10;;
55776;SDS011;54079;44.540;18.784;2022-08-21T09:05:49;3.20;;;2.38;;
55776;SDS011;54079;44.540;18.784;2022-08-21T09:11:04;2.13;;;1.92;;
55776;SDS011;54079;44.540;18.784;2022-08-21T09:13:50;1.85;;;1.67;;
55776;SDS011;54079;44.540;18.784;2022-08-21T09:27:25;7.43;;;3.28;;
55776;SDS011;54079;44.540;18.784;2022-08-21T09:29:52;7.20;;;2.17;;
55776;SDS011;54079;44.540;18.784;2022-08-21T09:32:21;1.00;;;1.00;;
55776;SDS011;54079;44.540;18.784;2022-08-21T09:37:31;1.95;;;1.60;;
55776;SDS011;54079;44.540;18.784;2022-08-21T09:39:59;2.55;;;1.88;;
55776;SDS011;54079;44.540;18.784;2022-08-21T09:42:27;2.10;;;1.70;;
55776;SDS011;54079;44.540;18.784;2022-08-21T09:45:06;4.93;;;2.78;;
55776;SDS011;54079;44.540;18.784;2022-08-21T09:47:39;1.40;;;1.30;;
55776;SDS011;54079;44.540;18.784;2022-08-21T09:50:25;1.48;;;1.38;;
55776;SDS011;54079;44.540;18.784;2022-08-21T09:52:56;2.70;;;2.08;;
55776;SDS011;54079;44.540;18.784;2022-08-21T09:58:16;3.00;;;1.48;;
55776;SDS011;54079;44.540;18.784;2022-08-21T10:00:44;1.40;;;0.95;;
55776;SDS011;54079;44.540;18.784;2022-08-21T10:03:20;1.85;;;1.02;;
55776;SDS011;54079;44.540;18.784;2022-08-21T10:06:05;4.03;;;0.93;;
55776;SDS011;54079;44.540;18.784;2022-08-21T10:08:35;2.40;;;0.90;;
55776;SDS011;54079;44.540;18.784;2022-08-21T10:11:11;4.47;;;2.13;;
55776;SDS011;54079;44.540;18.784;2022-08-21T10:13:45;2.15;;;1.75;;
55776;SDS011;54079;44.540;18.784;2022-08-21T10:19:19;3.25;;;2.80;;
55776;SDS011;54079;44.540;18.784;2022-08-21T10:22:07;6.55;;;4.13;;
55776;SDS011;54079;44.540;18.784;2022-08-21T10:30:28;2.20;;;1.70;;
55776;SDS011;54079;44.540;18.784;2022-08-21T10:36:29;4.47;;;3.80;;
55776;SDS011;54079;44.540;18.784;2022-08-21T10:50:07;2.15;;;1.77;;
55776;SDS011;54079;44.540;18.784;2022-08-21T10:55:33;1.50;;;1.40;;
55776;SDS011;54079;44.540;18.784;2022-08-21T10:58:12;1.60;;;1.50;;
55776;SDS011;54079;44.540;18.784;2022-08-21T11:00:55;2.75;;;2.13;;
55776;SDS011;54079;44.540;18.784;2022-08-21T11:03:44;1.38;;;1.20;;
55776;SDS011;54079;44.540;18.784;2022-08-21T11:06:15;3.70;;;2.78;;
55776;SDS011;54079;44.540;18.784;2022-08-21T11:09:26;2.95;;;2.65;;
55776;SDS011;54079;44.540;18.784;2022-08-21T11:11:52;4.05;;;3.65;;
55776;SDS011;54079;44.540;18.784;2022-08-21T11:17:30;8.63;;;7.07;;
55776;SDS011;54079;44.540;18.784;2022-08-21T11:20:03;6.15;;;5.20;;
55776;SDS011;54079;44.540;18.784;2022-08-21T11:22:47;5.55;;;5.05;;
55776;SDS011;54079;44.540;18.784;2022-08-21T11:25:40;5.20;;;3.53;;
55776;SDS011;54079;44.540;18.784;2022-08-21T11:28:18;2.75;;;2.13;;
55776;SDS011;54079;44.540;18.784;2022-08-21T11:33:46;1.58;;;1.48;;
55776;SDS011;54079;44.540;18.784;2022-08-21T11:39:22;2.13;;;1.90;;
55776;SDS011;54079;44.540;18.784;2022-08-21T11:44:32;2.25;;;2.08;;
55776;SDS011;54079;44.540;18.784;2022-08-21T11:58:05;2.40;;;2.20;;
55776;SDS011;54079;44.540;18.784;2022-08-21T12:00:41;2.70;;;1.80;;
55776;SDS011;54079;44.540;18.784;2022-08-21T12:03:25;2.53;;;2.33;;
55776;SDS011;54079;44.540;18.784;2022-08-21T12:05:58;2.55;;;1.73;;
55776;SDS011;54079;44.540;18.784;2022-08-21T12:08:34;3.15;;;2.30;;
55776;SDS011;54079;44.540;18.784;2022-08-21T12:16:29;4.13;;;2.88;;
55776;SDS011;54079;44.540;18.784;2022-08-21T12:19:07;2.40;;;2.20;;
55776;SDS011;54079;44.540;18.784;2022-08-21T12:21:33;3.58;;;2.70;;
55776;SDS011;54079;44.540;18.784;2022-08-21T12:26:58;2.30;;;2.20;;
55776;SDS011;54079;44.540;18.784;2022-08-21T12:29:51;2.35;;;2.15;;
55776;SDS011;54079;44.540;18.784;2022-08-21T12:33:04;2.33;;;2.10;;
55776;SDS011;54079;44.540;18.784;2022-08-21T12:35:20;4.30;;;2.80;;
55776;SDS011;54079;44.540;18.784;2022-08-21T12:40:41;2.35;;;2.13;;
55776;SDS011;54079;44.540;18.784;2022-08-21T12:43:20;2.13;;;2.03;;
55776;SDS011;54079;44.540;18.784;2022-08-21T12:45:58;3.22;;;2.65;;
55776;SDS011;54079;44.540;18.784;2022-08-21T12:48:33;2.10;;;2.00;;
55776;SDS011;54079;44.540;18.784;2022-08-21T12:51:11;2.90;;;1.70;;
55776;SDS011;54079;44.540;18.784;2022-08-21T12:53:49;2.35;;;2.13;;
55776;SDS011;54079;44.540;18.784;2022-08-21T12:56:21;3.70;;;2.67;;
55776;SDS011;54079;44.540;18.784;2022-08-21T12:58:54;2.70;;;2.50;;
55776;SDS011;54079;44.540;18.784;2022-08-21T13:03:50;4.30;;;2.35;;
55776;SDS011;54079;44.540;18.784;2022-08-21T13:06:20;2.08;;;1.88;;
55776;SDS011;54079;44.540;18.784;2022-08-21T13:08:50;1.92;;;1.83;;
55776;SDS011;54079;44.540;18.784;2022-08-21T13:11:21;1.98;;;1.75;;
55776;SDS011;54079;44.540;18.784;2022-08-21T13:13:49;21.52;;;3.10;;
55776;SDS011;54079;44.540;18.784;2022-08-21T13:16:28;3.80;;;2.40;;
55776;SDS011;54079;44.540;18.784;2022-08-21T13:19:03;8.50;;;2.90;;
55776;SDS011;54079;44.540;18.784;2022-08-21T13:21:32;3.50;;;2.60;;
55776;SDS011;54079;44.540;18.784;2022-08-21T13:24:41;8.75;;;3.67;;
55776;SDS011;54079;44.540;18.784;2022-08-21T13:27:02;4.20;;;2.70;;
55776;SDS011;54079;44.540;18.784;2022-08-21T13:29:32;2.70;;;2.47;;
55776;SDS011;54079;44.540;18.784;2022-08-21T13:32:02;1.75;;;1.63;;
55776;SDS011;54079;44.540;18.784;2022-08-21T13:34:35;1.77;;;1.50;;
55776;SDS011;54079;44.540;18.784;2022-08-21T13:37:06;3.10;;;1.70;;
55776;SDS011;54079;44.540;18.784;2022-08-21T13:39:36;1.90;;;1.80;;
55776;SDS011;54079;44.540;18.784;2022-08-21T13:42:04;3.47;;;2.00;;
55776;SDS011;54079;44.540;18.784;2022-08-21T13:44:39;4.15;;;2.17;;
55776;SDS011;54079;44.540;18.784;2022-08-21T13:47:09;2.70;;;1.95;;
55776;SDS011;54079;44.540;18.784;2022-08-21T13:49:39;3.70;;;1.98;;
55776;SDS011;54079;44.540;18.784;2022-08-21T13:54:57;2.67;;;2.47;;
55776;SDS011;54079;44.540;18.784;2022-08-21T13:57:30;6.30;;;2.92;;
55776;SDS011;54079;44.540;18.784;2022-08-21T14:00:12;3.55;;;2.47;;
55776;SDS011;54079;44.540;18.784;2022-08-21T14:02:50;4.03;;;2.47;;
55776;SDS011;54079;44.540;18.784;2022-08-21T14:05:26;2.80;;;2.42;;
55776;SDS011;54079;44.540;18.784;2022-08-21T14:08:04;5.45;;;2.55;;
55776;SDS011;54079;44.540;18.784;2022-08-21T14:10:40;2.60;;;2.22;;
55776;SDS011;54079;44.540;18.784;2022-08-21T14:13:56;2.28;;;2.08;;
55776;SDS011;54079;44.540;18.784;2022-08-21T14:16:03;2.75;;;2.55;;
55776;SDS011;54079;44.540;18.784;2022-08-21T14:18:54;3.65;;;3.00;;
55776;SDS011;54079;44.540;18.784;2022-08-21T14:21:46;3.55;;;2.92;;
55776;SDS011;54079;44.540;18.784;2022-08-21T14:24:13;3.33;;;3.03;;
55776;SDS011;54079;44.540;18.784;2022-08-21T14:26:49;6.13;;;2.90;;
55776;SDS011;54079;44.540;18.784;2022-08-21T14:29:19;3.00;;;2.78;;
55776;SDS011;54079;44.540;18.784;2022-08-21T14:31:55;5.40;;;2.85;;
55776;SDS011;54079;44.540;18.784;2022-08-21T14:34:26;3.67;;;2.60;;
55776;SDS011;54079;44.540;18.784;2022-08-21T14:36:54;3.43;;;2.87;;
55776;SDS011;54079;44.540;18.784;2022-08-21T14:39:20;5.32;;;2.60;;
55776;SDS011;54079;44.540;18.784;2022-08-21T14:41:47;3.33;;;2.45;;
55776;SDS011;54079;44.540;18.784;2022-08-21T14:44:14;3.28;;;2.70;;
55776;SDS011;54079;44.540;18.784;2022-08-21T14:46:41;5.65;;;2.75;;
55776;SDS011;54079;44.540;18.784;2022-08-21T14:49:07;6.32;;;2.80;;
55776;SDS011;54079;44.540;18.784;2022-08-21T14:51:33;4.07;;;2.67;;
55776;SDS011;54079;44.540;18.784;2022-08-21T14:53:59;9.73;;;5.20;;
55776;SDS011;54079;44.540;18.784;2022-08-21T14:56:25;9.70;;;4.78;;
55776;SDS011;54079;44.540;18.784;2022-08-21T14:58:52;5.85;;;3.85;;
55776;SDS011;54079;44.540;18.784;2022-08-21T15:01:19;4.32;;;3.15;;
55776;SDS011;54079;44.540;18.784;2022-08-21T15:03:47;3.63;;;3.33;;
55776;SDS011;54079;44.540;18.784;2022-08-21T15:06:13;5.32;;;3.67;;
55776;SDS011;54079;44.540;18.784;2022-08-21T15:08:42;5.15;;;4.40;;
55776;SDS011;54079;44.540;18.784;2022-08-21T15:11:09;3.75;;;3.40;;
55776;SDS011;54079;44.540;18.784;2022-08-21T15:13:41;5.10;;;3.45;;
55776;SDS011;54079;44.540;18.784;2022-08-21T15:16:08;4.25;;;3.58;;
55776;SDS011;54079;44.540;18.784;2022-08-21T15:18:35;7.43;;;3.30;;
55776;SDS011;54079;44.540;18.784;2022-08-21T15:21:01;4.25;;;3.25;;
55776;SDS011;54079;44.540;18.784;2022-08-21T15:23:27;3.55;;;2.53;;
55776;SDS011;54079;44.540;18.784;2022-08-21T15:25:53;5.82;;;3.22;;
55776;SDS011;54079;44.540;18.784;2022-08-21T15:28:22;4.55;;;2.40;;
55776;SDS011;54079;44.540;18.784;2022-08-21T15:30:49;4.75;;;2.28;;
55776;SDS011;54079;44.540;18.784;2022-08-21T15:33:15;3.28;;;2.95;;
55776;SDS011;54079;44.540;18.784;2022-08-21T15:35:42;4.53;;;3.00;;
55776;SDS011;54079;44.540;18.784;2022-08-21T15:38:08;2.78;;;2.58;;
55776;SDS011;54079;44.540;18.784;2022-08-21T15:40:34;3.25;;;2.53;;
55776;SDS011;54079;44.540;18.784;2022-08-21T15:43:02;3.03;;;2.45;;
55776;SDS011;54079;44.540;18.784;2022-08-21T15:45:29;2.80;;;2.00;;
55776;SDS011;54079;44.540;18.784;2022-08-21T15:47:55;2.50;;;2.30;;
55776;SDS011;54079;44.540;18.784;2022-08-21T15:50:22;2.60;;;2.15;;
55776;SDS011;54079;44.540;18.784;2022-08-21T15:52:49;2.45;;;2.20;;
55776;SDS011;54079;44.540;18.784;2022-08-21T15:55:15;4.45;;;2.00;;
55776;SDS011;54079;44.540;18.784;2022-08-21T15:57:45;2.20;;;2.00;;
55776;SDS011;54079;44.540;18.784;2022-08-21T16:02:45;3.17;;;1.95;;
55776;SDS011;54079;44.540;18.784;2022-08-21T16:05:13;5.22;;;2.10;;
55776;SDS011;54079;44.540;18.784;2022-08-21T16:07:41;2.08;;;1.98;;
55776;SDS011;54079;44.540;18.784;2022-08-21T16:10:09;3.17;;;2.22;;
55776;SDS011;54079;44.540;18.784;2022-08-21T16:12:38;2.65;;;2.20;;
55776;SDS011;54079;44.540;18.784;2022-08-21T16:15:14;3.85;;;1.70;;